ROMMA est une association bénévole à but non lucratif. Votre soutien est indispensable : ADHERER à ROMMA ou FAIRE un DON

Crest - (26, Drôme)

Vallée de la Drôme (315 m)   Longitude: 5°2' E   Latitude: 44°44' N Station partenaire n°62
 

Détail journalier du     <<     >>

Température Precipitation Humidité Pression Vent Dir Rafale Dir. rafale Ensol.
Heure (°C) (mm) (%) (hPa) (km/h) (km/h) (min)
01:00 1.809110341SSE6SSE0
02:00 1.409110343SSE6SSE0
03:00 1.409210342SSE8SE0
04:00 1.609110342SSE10SE0
05:00 0.909010332SE8SE0
06:00 0.909110332SE6SSE0
07:00 0.909010332SE6SE0
08:00 0.808910333SE8SE0
09:00 0.608810333SE10SE10
10:00 2.907910343SE11SE60
11:00 4.607310344SE13SE60
12:00 6.406410344SE13ESE60
13:00 8.706410331ESE6SE60
14:00 9.506810322ESE6ESE57
15:00 7.807410312SE8S59
16:00 6.107910311S6S60
17:00 4.4084103103S38
18:00 3.6087103205SSO0
19:00 2.908810321---11SSO0
20:00 2.209110322---8SSO0
21:00 1.809210322NE11SSO0
22:00 1.6092103203SO0
23:00 1.809310321---3SO0
minuit 0.6093103200---0

Graphique du 31-12-2019

 

Serveur OMMA